Mountain View, Oklahoma
Current Conditions -  °F | °C
As of 2:53 AM on Thursday 23 Oct 2014 (Local Time) from KHBR Reporting Station
Overcast Overcast  
Wind Chill: 61°   Ceiling: 4700
Heat Index: 61°   Visibility: 10mi
Dew Point: 58°   Wind: 3mph
Humidity: 90%   Direction: 230°SW
Pressure: 30.11"   Gusts: NA
Location:  35.1°N, 98.75°W
Report Text: KHBR 230753Z AUTO 23003KT 10SM OVC047 16/14 A3011 RMK AO2 SLP184 T01610144
Loading
Personal Weather Stations






























Interactive Weather Map
Tropical Storm Tracking
New forecast layout! Learn more

10-Day Weather Forecast

Advertisements
Track Severe Weather on mobile